sensor_id;sensor_type;location;lat;lon;timestamp;P1;durP1;ratioP1;P2;durP2;ratioP2
43114;SDS011;28727;50.068;14.452;2023-04-01T00:01:04;2.33;;;1.00;;
43114;SDS011;28727;50.068;14.452;2023-04-01T00:03:37;6.75;;;1.25;;
43114;SDS011;28727;50.068;14.452;2023-04-01T00:06:14;3.10;;;1.13;;
43114;SDS011;28727;50.068;14.452;2023-04-01T00:08:49;2.75;;;1.00;;
43114;SDS011;28727;50.068;14.452;2023-04-01T00:11:21;3.65;;;1.05;;
43114;SDS011;28727;50.068;14.452;2023-04-01T00:13:53;5.25;;;1.92;;
43114;SDS011;28727;50.068;14.452;2023-04-01T00:16:25;4.15;;;1.50;;
43114;SDS011;28727;50.068;14.452;2023-04-01T00:18:57;2.70;;;1.58;;
43114;SDS011;28727;50.068;14.452;2023-04-01T00:21:29;2.25;;;1.00;;
43114;SDS011;28727;50.068;14.452;2023-04-01T00:24:01;5.68;;;1.60;;
43114;SDS011;28727;50.068;14.452;2023-04-01T00:26:33;2.13;;;0.90;;
43114;SDS011;28727;50.068;14.452;2023-04-01T00:29:05;3.38;;;0.90;;
43114;SDS011;28727;50.068;14.452;2023-04-01T00:31:41;4.13;;;0.93;;
43114;SDS011;28727;50.068;14.452;2023-04-01T00:34:13;4.25;;;0.82;;
43114;SDS011;28727;50.068;14.452;2023-04-01T00:36:45;2.35;;;1.10;;
43114;SDS011;28727;50.068;14.452;2023-04-01T00:39:16;2.63;;;0.93;;
43114;SDS011;28727;50.068;14.452;2023-04-01T00:41:48;1.63;;;0.80;;
43114;SDS011;28727;50.068;14.452;2023-04-01T00:44:21;1.73;;;0.80;;
43114;SDS011;28727;50.068;14.452;2023-04-01T00:47:01;1.48;;;0.80;;
43114;SDS011;28727;50.068;14.452;2023-04-01T00:49:34;2.75;;;0.75;;
43114;SDS011;28727;50.068;14.452;2023-04-01T00:52:10;1.52;;;0.63;;
43114;SDS011;28727;50.068;14.452;2023-04-01T00:54:45;2.92;;;1.00;;
43114;SDS011;28727;50.068;14.452;2023-04-01T00:57:23;3.05;;;1.00;;
43114;SDS011;28727;50.068;14.452;2023-04-01T01:00:01;2.35;;;0.77;;
43114;SDS011;28727;50.068;14.452;2023-04-01T01:02:34;2.50;;;0.80;;
43114;SDS011;28727;50.068;14.452;2023-04-01T01:05:11;1.85;;;1.05;;
43114;SDS011;28727;50.068;14.452;2023-04-01T01:10:39;2.45;;;0.90;;
43114;SDS011;28727;50.068;14.452;2023-04-01T01:13:13;3.72;;;0.82;;
43114;SDS011;28727;50.068;14.452;2023-04-01T01:16:04;1.77;;;0.82;;
43114;SDS011;28727;50.068;14.452;2023-04-01T01:21:29;3.20;;;0.68;;
43114;SDS011;28727;50.068;14.452;2023-04-01T01:24:22;3.22;;;0.90;;
43114;SDS011;28727;50.068;14.452;2023-04-01T01:27:10;2.90;;;0.88;;
43114;SDS011;28727;50.068;14.452;2023-04-01T01:32:52;5.78;;;1.50;;
43114;SDS011;28727;50.068;14.452;2023-04-01T01:35:50;2.38;;;0.95;;
43114;SDS011;28727;50.068;14.452;2023-04-01T01:38:29;1.58;;;0.70;;
43114;SDS011;28727;50.068;14.452;2023-04-01T01:41:08;2.22;;;0.80;;
43114;SDS011;28727;50.068;14.452;2023-04-01T01:43:43;2.03;;;0.70;;
43114;SDS011;28727;50.068;14.452;2023-04-01T01:46:22;1.65;;;0.77;;
43114;SDS011;28727;50.068;14.452;2023-04-01T01:48:56;2.60;;;0.85;;
43114;SDS011;28727;50.068;14.452;2023-04-01T01:51:30;4.10;;;0.90;;
43114;SDS011;28727;50.068;14.452;2023-04-01T01:54:04;2.40;;;1.02;;
43114;SDS011;28727;50.068;14.452;2023-04-01T01:56:36;1.80;;;0.77;;
43114;SDS011;28727;50.068;14.452;2023-04-01T01:59:10;1.67;;;0.75;;
43114;SDS011;28727;50.068;14.452;2023-04-01T02:01:45;2.80;;;0.90;;
43114;SDS011;28727;50.068;14.452;2023-04-01T02:04:21;2.15;;;0.88;;
43114;SDS011;28727;50.068;14.452;2023-04-01T02:07:00;2.28;;;0.85;;
43114;SDS011;28727;50.068;14.452;2023-04-01T02:09:35;1.50;;;0.80;;
43114;SDS011;28727;50.068;14.452;2023-04-01T02:12:08;1.42;;;0.88;;
43114;SDS011;28727;50.068;14.452;2023-04-01T02:17:23;2.00;;;0.70;;
43114;SDS011;28727;50.068;14.452;2023-04-01T02:20:04;2.45;;;0.80;;
43114;SDS011;28727;50.068;14.452;2023-04-01T02:22:46;2.67;;;1.00;;
43114;SDS011;28727;50.068;14.452;2023-04-01T02:25:23;2.92;;;0.75;;
43114;SDS011;28727;50.068;14.452;2023-04-01T02:28:01;1.83;;;0.88;;
43114;SDS011;28727;50.068;14.452;2023-04-01T02:30:36;2.17;;;0.80;;
43114;SDS011;28727;50.068;14.452;2023-04-01T02:33:11;2.55;;;1.10;;
43114;SDS011;28727;50.068;14.452;2023-04-01T02:35:43;2.63;;;0.90;;
43114;SDS011;28727;50.068;14.452;2023-04-01T02:38:15;2.85;;;0.77;;
43114;SDS011;28727;50.068;14.452;2023-04-01T02:40:48;2.35;;;1.00;;
43114;SDS011;28727;50.068;14.452;2023-04-01T02:43:22;3.95;;;0.77;;
43114;SDS011;28727;50.068;14.452;2023-04-01T02:45:57;3.90;;;0.90;;
43114;SDS011;28727;50.068;14.452;2023-04-01T02:48:29;1.38;;;0.70;;
43114;SDS011;28727;50.068;14.452;2023-04-01T02:51:01;2.55;;;1.20;;
43114;SDS011;28727;50.068;14.452;2023-04-01T02:53:36;4.53;;;1.20;;
43114;SDS011;28727;50.068;14.452;2023-04-01T02:58:39;2.83;;;0.73;;
43114;SDS011;28727;50.068;14.452;2023-04-01T03:01:11;3.80;;;1.45;;
43114;SDS011;28727;50.068;14.452;2023-04-01T03:03:43;1.40;;;0.70;;
43114;SDS011;28727;50.068;14.452;2023-04-01T03:06:15;1.50;;;0.60;;
43114;SDS011;28727;50.068;14.452;2023-04-01T03:08:49;3.95;;;1.10;;
43114;SDS011;28727;50.068;14.452;2023-04-01T03:11:20;1.63;;;0.80;;
43114;SDS011;28727;50.068;14.452;2023-04-01T03:13:53;2.03;;;0.85;;
43114;SDS011;28727;50.068;14.452;2023-04-01T03:16:25;3.88;;;0.93;;
43114;SDS011;28727;50.068;14.452;2023-04-01T03:18:57;1.90;;;0.80;;
43114;SDS011;28727;50.068;14.452;2023-04-01T03:21:31;3.65;;;1.10;;
43114;SDS011;28727;50.068;14.452;2023-04-01T03:24:04;2.22;;;0.90;;
43114;SDS011;28727;50.068;14.452;2023-04-01T03:26:37;3.22;;;0.90;;
43114;SDS011;28727;50.068;14.452;2023-04-01T03:29:10;2.17;;;0.93;;
43114;SDS011;28727;50.068;14.452;2023-04-01T03:31:42;3.17;;;0.80;;
43114;SDS011;28727;50.068;14.452;2023-04-01T03:34:17;4.57;;;1.10;;
43114;SDS011;28727;50.068;14.452;2023-04-01T03:36:48;3.92;;;1.13;;
43114;SDS011;28727;50.068;14.452;2023-04-01T03:39:21;4.13;;;0.90;;
43114;SDS011;28727;50.068;14.452;2023-04-01T03:41:55;3.00;;;0.90;;
43114;SDS011;28727;50.068;14.452;2023-04-01T03:44:31;4.22;;;1.33;;
43114;SDS011;28727;50.068;14.452;2023-04-01T03:47:04;2.22;;;0.90;;
43114;SDS011;28727;50.068;14.452;2023-04-01T03:49:37;3.10;;;0.85;;
43114;SDS011;28727;50.068;14.452;2023-04-01T03:52:09;3.70;;;0.90;;
43114;SDS011;28727;50.068;14.452;2023-04-01T03:54:42;1.77;;;0.70;;
43114;SDS011;28727;50.068;14.452;2023-04-01T03:57:14;4.70;;;0.75;;
43114;SDS011;28727;50.068;14.452;2023-04-01T03:59:49;2.60;;;0.65;;
43114;SDS011;28727;50.068;14.452;2023-04-01T04:02:21;5.78;;;2.05;;
43114;SDS011;28727;50.068;14.452;2023-04-01T04:04:53;4.50;;;1.20;;
43114;SDS011;28727;50.068;14.452;2023-04-01T04:07:25;3.08;;;1.00;;
43114;SDS011;28727;50.068;14.452;2023-04-01T04:10:11;4.25;;;1.00;;
43114;SDS011;28727;50.068;14.452;2023-04-01T04:12:42;1.80;;;0.93;;
43114;SDS011;28727;50.068;14.452;2023-04-01T04:15:15;3.33;;;1.17;;
43114;SDS011;28727;50.068;14.452;2023-04-01T04:17:47;3.00;;;1.00;;
43114;SDS011;28727;50.068;14.452;2023-04-01T04:20:19;3.20;;;1.10;;
43114;SDS011;28727;50.068;14.452;2023-04-01T04:22:52;3.88;;;1.02;;
43114;SDS011;28727;50.068;14.452;2023-04-01T04:25:24;4.15;;;1.00;;
43114;SDS011;28727;50.068;14.452;2023-04-01T04:27:55;3.53;;;0.90;;
43114;SDS011;28727;50.068;14.452;2023-04-01T04:30:27;7.10;;;1.27;;
43114;SDS011;28727;50.068;14.452;2023-04-01T04:32:59;5.63;;;2.38;;
43114;SDS011;28727;50.068;14.452;2023-04-01T04:35:31;2.50;;;0.80;;
43114;SDS011;28727;50.068;14.452;2023-04-01T04:38:04;3.85;;;1.13;;
43114;SDS011;28727;50.068;14.452;2023-04-01T04:40:42;2.35;;;1.40;;
43114;SDS011;28727;50.068;14.452;2023-04-01T04:43:17;3.00;;;1.00;;
43114;SDS011;28727;50.068;14.452;2023-04-01T04:45:50;5.00;;;0.90;;
43114;SDS011;28727;50.068;14.452;2023-04-01T04:48:22;3.17;;;1.00;;
43114;SDS011;28727;50.068;14.452;2023-04-01T04:50:54;4.53;;;1.10;;
43114;SDS011;28727;50.068;14.452;2023-04-01T04:53:27;2.95;;;1.13;;
43114;SDS011;28727;50.068;14.452;2023-04-01T04:56:02;4.68;;;1.08;;
43114;SDS011;28727;50.068;14.452;2023-04-01T04:58:47;7.93;;;1.40;;
43114;SDS011;28727;50.068;14.452;2023-04-01T05:01:24;3.53;;;1.10;;
43114;SDS011;28727;50.068;14.452;2023-04-01T05:03:56;5.13;;;1.27;;
43114;SDS011;28727;50.068;14.452;2023-04-01T05:06:28;3.05;;;1.10;;
43114;SDS011;28727;50.068;14.452;2023-04-01T05:11:35;3.90;;;1.10;;
43114;SDS011;28727;50.068;14.452;2023-04-01T05:14:11;4.72;;;1.25;;
43114;SDS011;28727;50.068;14.452;2023-04-01T05:16:45;4.60;;;1.10;;
43114;SDS011;28727;50.068;14.452;2023-04-01T05:19:17;4.13;;;1.20;;
43114;SDS011;28727;50.068;14.452;2023-04-01T05:21:48;4.32;;;1.10;;
43114;SDS011;28727;50.068;14.452;2023-04-01T05:24:21;4.82;;;1.35;;
43114;SDS011;28727;50.068;14.452;2023-04-01T05:26:57;4.13;;;1.35;;
43114;SDS011;28727;50.068;14.452;2023-04-01T05:29:30;2.25;;;1.23;;
43114;SDS011;28727;50.068;14.452;2023-04-01T05:32:08;2.90;;;1.08;;
43114;SDS011;28727;50.068;14.452;2023-04-01T05:34:40;4.75;;;1.40;;
43114;SDS011;28727;50.068;14.452;2023-04-01T05:37:12;3.53;;;1.27;;
43114;SDS011;28727;50.068;14.452;2023-04-01T05:39:44;4.22;;;1.42;;
43114;SDS011;28727;50.068;14.452;2023-04-01T05:42:16;4.43;;;1.30;;
43114;SDS011;28727;50.068;14.452;2023-04-01T05:44:48;3.53;;;1.40;;
43114;SDS011;28727;50.068;14.452;2023-04-01T05:47:55;4.65;;;1.02;;
43114;SDS011;28727;50.068;14.452;2023-04-01T05:50:27;3.55;;;1.10;;
43114;SDS011;28727;50.068;14.452;2023-04-01T05:52:59;3.78;;;1.10;;
43114;SDS011;28727;50.068;14.452;2023-04-01T05:55:30;4.25;;;1.95;;
43114;SDS011;28727;50.068;14.452;2023-04-01T05:58:03;4.57;;;1.25;;
43114;SDS011;28727;50.068;14.452;2023-04-01T06:00:35;6.32;;;1.10;;
43114;SDS011;28727;50.068;14.452;2023-04-01T06:03:07;3.38;;;1.20;;
43114;SDS011;28727;50.068;14.452;2023-04-01T06:05:40;4.57;;;1.15;;
43114;SDS011;28727;50.068;14.452;2023-04-01T06:08:17;3.50;;;1.10;;
43114;SDS011;28727;50.068;14.452;2023-04-01T06:16:22;3.72;;;1.10;;
43114;SDS011;28727;50.068;14.452;2023-04-01T06:41:40;4.15;;;1.30;;
43114;SDS011;28727;50.068;14.452;2023-04-01T06:44:55;3.30;;;1.77;;
43114;SDS011;28727;50.068;14.452;2023-04-01T06:48:19;4.30;;;1.20;;
43114;SDS011;28727;50.068;14.452;2023-04-01T06:51:20;2.75;;;1.02;;
43114;SDS011;28727;50.068;14.452;2023-04-01T06:54:20;2.47;;;1.08;;
43114;SDS011;28727;50.068;14.452;2023-04-01T06:57:17;5.50;;;1.30;;
43114;SDS011;28727;50.068;14.452;2023-04-01T07:00:03;4.70;;;1.10;;
43114;SDS011;28727;50.068;14.452;2023-04-01T07:02:54;3.22;;;1.20;;
43114;SDS011;28727;50.068;14.452;2023-04-01T07:05:37;6.30;;;1.30;;
43114;SDS011;28727;50.068;14.452;2023-04-01T07:08:16;5.70;;;1.30;;
43114;SDS011;28727;50.068;14.452;2023-04-01T07:13:51;4.72;;;1.20;;
43114;SDS011;28727;50.068;14.452;2023-04-01T07:16:39;6.32;;;1.17;;
43114;SDS011;28727;50.068;14.452;2023-04-01T07:19:34;3.33;;;1.00;;
43114;SDS011;28727;50.068;14.452;2023-04-01T07:25:43;1.65;;;0.85;;
43114;SDS011;28727;50.068;14.452;2023-04-01T07:28:35;4.93;;;1.00;;
43114;SDS011;28727;50.068;14.452;2023-04-01T07:31:30;2.70;;;0.90;;
43114;SDS011;28727;50.068;14.452;2023-04-01T07:48:31;4.93;;;2.47;;
43114;SDS011;28727;50.068;14.452;2023-04-01T07:51:32;1.42;;;0.82;;
43114;SDS011;28727;50.068;14.452;2023-04-01T07:57:15;2.15;;;0.98;;
43114;SDS011;28727;50.068;14.452;2023-04-01T08:00:42;3.83;;;2.05;;
43114;SDS011;28727;50.068;14.452;2023-04-01T08:06:40;7.00;;;1.65;;
43114;SDS011;28727;50.068;14.452;2023-04-01T08:21:40;4.13;;;0.90;;
43114;SDS011;28727;50.068;14.452;2023-04-01T08:24:18;1.83;;;0.80;;
43114;SDS011;28727;50.068;14.452;2023-04-01T08:27:16;1.90;;;0.70;;
43114;SDS011;28727;50.068;14.452;2023-04-01T08:29:57;1.70;;;0.60;;
43114;SDS011;28727;50.068;14.452;2023-04-01T08:32:36;5.03;;;1.67;;
43114;SDS011;28727;50.068;14.452;2023-04-01T08:38:14;2.88;;;0.90;;
43114;SDS011;28727;50.068;14.452;2023-04-01T08:40:55;2.72;;;1.08;;
43114;SDS011;28727;50.068;14.452;2023-04-01T08:49:12;2.10;;;0.80;;
43114;SDS011;28727;50.068;14.452;2023-04-01T08:52:32;4.90;;;1.15;;
43114;SDS011;28727;50.068;14.452;2023-04-01T08:58:26;4.07;;;1.00;;
43114;SDS011;28727;50.068;14.452;2023-04-01T09:01:42;2.25;;;0.75;;
43114;SDS011;28727;50.068;14.452;2023-04-01T09:21:51;3.45;;;0.98;;
43114;SDS011;28727;50.068;14.452;2023-04-01T09:30:13;2.75;;;0.70;;
43114;SDS011;28727;50.068;14.452;2023-04-01T09:35:39;4.22;;;1.00;;
43114;SDS011;28727;50.068;14.452;2023-04-01T09:40:57;5.97;;;1.15;;
43114;SDS011;28727;50.068;14.452;2023-04-01T09:44:02;5.13;;;2.35;;
43114;SDS011;28727;50.068;14.452;2023-04-01T09:52:45;0.85;;;0.60;;
43114;SDS011;28727;50.068;14.452;2023-04-01T09:58:25;9.45;;;1.05;;
43114;SDS011;28727;50.068;14.452;2023-04-01T10:25:31;2.85;;;0.77;;
43114;SDS011;28727;50.068;14.452;2023-04-01T10:28:47;0.98;;;0.60;;
43114;SDS011;28727;50.068;14.452;2023-04-01T10:51:56;1.65;;;0.70;;
43114;SDS011;28727;50.068;14.452;2023-04-01T11:05:26;1.25;;;0.70;;
43114;SDS011;28727;50.068;14.452;2023-04-01T11:19:59;0.88;;;0.80;;
43114;SDS011;28727;50.068;14.452;2023-04-01T11:32:29;1.95;;;0.73;;
43114;SDS011;28727;50.068;14.452;2023-04-01T11:35:25;2.42;;;0.80;;
43114;SDS011;28727;50.068;14.452;2023-04-01T11:44:16;3.97;;;1.00;;
43114;SDS011;28727;50.068;14.452;2023-04-01T11:47:28;1.42;;;0.70;;
43114;SDS011;28727;50.068;14.452;2023-04-01T12:09:08;1.23;;;0.63;;
43114;SDS011;28727;50.068;14.452;2023-04-01T12:11:53;1.02;;;0.80;;
43114;SDS011;28727;50.068;14.452;2023-04-01T12:14:39;2.30;;;0.90;;
43114;SDS011;28727;50.068;14.452;2023-04-01T12:59:51;2.83;;;1.05;;
43114;SDS011;28727;50.068;14.452;2023-04-01T13:05:38;1.40;;;0.80;;
43114;SDS011;28727;50.068;14.452;2023-04-01T13:08:41;1.92;;;1.13;;
43114;SDS011;28727;50.068;14.452;2023-04-01T13:20:13;2.45;;;1.02;;
43114;SDS011;28727;50.068;14.452;2023-04-01T13:28:59;2.45;;;0.80;;
43114;SDS011;28727;50.068;14.452;2023-04-01T13:43:46;1.58;;;0.80;;
43114;SDS011;28727;50.068;14.452;2023-04-01T13:46:31;3.47;;;0.90;;
43114;SDS011;28727;50.068;14.452;2023-04-01T13:54:51;1.48;;;0.90;;
43114;SDS011;28727;50.068;14.452;2023-04-01T14:01:04;2.13;;;0.73;;
43114;SDS011;28727;50.068;14.452;2023-04-01T14:10:05;1.38;;;0.70;;
43114;SDS011;28727;50.068;14.452;2023-04-01T14:12:42;1.75;;;0.70;;
43114;SDS011;28727;50.068;14.452;2023-04-01T14:21:40;2.85;;;0.90;;
43114;SDS011;28727;50.068;14.452;2023-04-01T14:41:47;1.73;;;0.70;;
43114;SDS011;28727;50.068;14.452;2023-04-01T14:44:52;1.02;;;0.65;;
43114;SDS011;28727;50.068;14.452;2023-04-01T14:47:43;2.95;;;0.70;;
43114;SDS011;28727;50.068;14.452;2023-04-01T14:50:28;3.08;;;0.70;;
43114;SDS011;28727;50.068;14.452;2023-04-01T14:53:12;1.23;;;0.70;;
43114;SDS011;28727;50.068;14.452;2023-04-01T14:55:58;1.33;;;0.70;;
43114;SDS011;28727;50.068;14.452;2023-04-01T14:58:57;2.03;;;1.08;;
43114;SDS011;28727;50.068;14.452;2023-04-01T15:01:35;0.88;;;0.60;;
43114;SDS011;28727;50.068;14.452;2023-04-01T15:07:21;1.10;;;0.70;;
43114;SDS011;28727;50.068;14.452;2023-04-01T15:15:35;1.50;;;0.80;;
43114;SDS011;28727;50.068;14.452;2023-04-01T15:21:19;1.67;;;0.95;;
43114;SDS011;28727;50.068;14.452;2023-04-01T15:35:21;1.90;;;0.93;;
43114;SDS011;28727;50.068;14.452;2023-04-01T15:44:26;1.33;;;0.80;;
43114;SDS011;28727;50.068;14.452;2023-04-01T15:58:20;2.72;;;1.00;;
43114;SDS011;28727;50.068;14.452;2023-04-01T16:07:10;2.53;;;1.08;;
43114;SDS011;28727;50.068;14.452;2023-04-01T16:10:16;1.77;;;0.88;;
43114;SDS011;28727;50.068;14.452;2023-04-01T16:27:23;2.53;;;0.98;;
43114;SDS011;28727;50.068;14.452;2023-04-01T16:32:57;2.15;;;1.08;;
43114;SDS011;28727;50.068;14.452;2023-04-01T16:35:46;2.33;;;0.82;;
43114;SDS011;28727;50.068;14.452;2023-04-01T16:44:53;1.85;;;1.00;;
43114;SDS011;28727;50.068;14.452;2023-04-01T16:47:35;2.80;;;0.80;;
43114;SDS011;28727;50.068;14.452;2023-04-01T16:53:15;1.05;;;0.68;;
43114;SDS011;28727;50.068;14.452;2023-04-01T16:58:38;1.38;;;0.80;;
43114;SDS011;28727;50.068;14.452;2023-04-01T17:01:27;1.13;;;0.60;;
43114;SDS011;28727;50.068;14.452;2023-04-01T17:04:07;3.13;;;0.70;;
43114;SDS011;28727;50.068;14.452;2023-04-01T17:06:52;0.75;;;0.68;;
43114;SDS011;28727;50.068;14.452;2023-04-01T17:18:14;3.28;;;1.00;;
43114;SDS011;28727;50.068;14.452;2023-04-01T17:23:36;2.00;;;1.00;;
43114;SDS011;28727;50.068;14.452;2023-04-01T17:26:21;3.92;;;1.85;;
43114;SDS011;28727;50.068;14.452;2023-04-01T17:29:20;4.28;;;1.30;;
43114;SDS011;28727;50.068;14.452;2023-04-01T17:31:58;2.53;;;1.00;;
43114;SDS011;28727;50.068;14.452;2023-04-01T17:35:31;3.17;;;1.35;;
43114;SDS011;28727;50.068;14.452;2023-04-01T17:38:02;2.53;;;1.30;;
43114;SDS011;28727;50.068;14.452;2023-04-01T17:40:52;1.95;;;1.20;;
43114;SDS011;28727;50.068;14.452;2023-04-01T17:46:19;2.63;;;1.50;;
43114;SDS011;28727;50.068;14.452;2023-04-01T18:06:35;3.25;;;1.50;;
43114;SDS011;28727;50.068;14.452;2023-04-01T18:12:28;2.90;;;1.45;;
43114;SDS011;28727;50.068;14.452;2023-04-01T18:23:55;5.05;;;1.83;;
43114;SDS011;28727;50.068;14.452;2023-04-01T18:26:33;2.85;;;1.80;;
43114;SDS011;28727;50.068;14.452;2023-04-01T18:32:14;5.15;;;1.83;;
43114;SDS011;28727;50.068;14.452;2023-04-01T18:34:55;3.58;;;2.00;;
43114;SDS011;28727;50.068;14.452;2023-04-01T18:38:03;3.00;;;1.63;;
43114;SDS011;28727;50.068;14.452;2023-04-01T18:40:40;2.67;;;1.48;;
43114;SDS011;28727;50.068;14.452;2023-04-01T18:52:42;4.00;;;1.60;;
43114;SDS011;28727;50.068;14.452;2023-04-01T19:01:31;3.08;;;1.70;;
43114;SDS011;28727;50.068;14.452;2023-04-01T19:13:08;3.83;;;1.50;;
43114;SDS011;28727;50.068;14.452;2023-04-01T19:18:47;3.25;;;1.52;;
43114;SDS011;28727;50.068;14.452;2023-04-01T19:21:47;3.33;;;1.35;;
43114;SDS011;28727;50.068;14.452;2023-04-01T19:27:48;3.28;;;1.50;;
43114;SDS011;28727;50.068;14.452;2023-04-01T19:33:15;2.42;;;1.48;;
43114;SDS011;28727;50.068;14.452;2023-04-01T19:47:35;3.25;;;2.10;;
43114;SDS011;28727;50.068;14.452;2023-04-01T19:50:50;3.35;;;1.73;;
43114;SDS011;28727;50.068;14.452;2023-04-01T19:56:22;3.17;;;1.90;;
43114;SDS011;28727;50.068;14.452;2023-04-01T20:04:41;2.40;;;1.60;;
43114;SDS011;28727;50.068;14.452;2023-04-01T20:07:20;2.97;;;1.55;;
43114;SDS011;28727;50.068;14.452;2023-04-01T20:10:03;2.33;;;1.40;;
43114;SDS011;28727;50.068;14.452;2023-04-01T20:13:00;2.50;;;1.65;;
43114;SDS011;28727;50.068;14.452;2023-04-01T20:18:52;2.88;;;1.77;;
43114;SDS011;28727;50.068;14.452;2023-04-01T20:21:42;2.90;;;1.58;;
43114;SDS011;28727;50.068;14.452;2023-04-01T20:24:21;3.42;;;1.75;;
43114;SDS011;28727;50.068;14.452;2023-04-01T20:27:00;2.85;;;1.70;;
43114;SDS011;28727;50.068;14.452;2023-04-01T20:35:35;3.45;;;1.98;;
43114;SDS011;28727;50.068;14.452;2023-04-01T20:53:28;3.65;;;2.05;;
43114;SDS011;28727;50.068;14.452;2023-04-01T21:01:25;3.70;;;2.20;;
43114;SDS011;28727;50.068;14.452;2023-04-01T21:18:15;4.20;;;2.40;;
43114;SDS011;28727;50.068;14.452;2023-04-01T21:29:53;4.18;;;2.30;;
43114;SDS011;28727;50.068;14.452;2023-04-01T21:32:40;3.85;;;2.10;;
43114;SDS011;28727;50.068;14.452;2023-04-01T21:41:51;3.50;;;1.98;;
43114;SDS011;28727;50.068;14.452;2023-04-01T21:56:30;2.95;;;1.70;;
43114;SDS011;28727;50.068;14.452;2023-04-01T22:07:43;5.63;;;2.47;;
43114;SDS011;28727;50.068;14.452;2023-04-01T22:10:32;3.10;;;1.80;;
43114;SDS011;28727;50.068;14.452;2023-04-01T22:27:44;3.45;;;1.90;;
43114;SDS011;28727;50.068;14.452;2023-04-01T22:30:28;2.78;;;1.80;;
43114;SDS011;28727;50.068;14.452;2023-04-01T22:35:54;3.05;;;1.88;;
43114;SDS011;28727;50.068;14.452;2023-04-01T22:38:41;4.50;;;1.88;;
43114;SDS011;28727;50.068;14.452;2023-04-01T22:44:49;3.15;;;1.77;;
43114;SDS011;28727;50.068;14.452;2023-04-01T22:56:49;4.10;;;2.30;;
43114;SDS011;28727;50.068;14.452;2023-04-01T23:02:30;4.95;;;1.88;;
43114;SDS011;28727;50.068;14.452;2023-04-01T23:05:12;4.25;;;2.20;;
43114;SDS011;28727;50.068;14.452;2023-04-01T23:07:52;4.03;;;2.50;;
43114;SDS011;28727;50.068;14.452;2023-04-01T23:10:42;3.72;;;1.88;;
43114;SDS011;28727;50.068;14.452;2023-04-01T23:13:31;4.32;;;2.10;;
43114;SDS011;28727;50.068;14.452;2023-04-01T23:16:13;3.00;;;2.00;;
43114;SDS011;28727;50.068;14.452;2023-04-01T23:24:11;4.10;;;2.05;;
43114;SDS011;28727;50.068;14.452;2023-04-01T23:27:01;3.95;;;2.17;;
43114;SDS011;28727;50.068;14.452;2023-04-01T23:29:42;3.25;;;2.00;;
43114;SDS011;28727;50.068;14.452;2023-04-01T23:32:15;4.05;;;2.15;;
43114;SDS011;28727;50.068;14.452;2023-04-01T23:34:50;4.03;;;2.60;;
43114;SDS011;28727;50.068;14.452;2023-04-01T23:37:23;3.10;;;2.13;;
43114;SDS011;28727;50.068;14.452;2023-04-01T23:39:57;3.42;;;2.00;;
43114;SDS011;28727;50.068;14.452;2023-04-01T23:42:33;3.50;;;2.25;;
43114;SDS011;28727;50.068;14.452;2023-04-01T23:45:13;3.65;;;2.00;;
43114;SDS011;28727;50.068;14.452;2023-04-01T23:47:53;3.17;;;1.88;;
43114;SDS011;28727;50.068;14.452;2023-04-01T23:50:25;3.25;;;2.13;;
43114;SDS011;28727;50.068;14.452;2023-04-01T23:53:00;5.22;;;2.00;;
43114;SDS011;28727;50.068;14.452;2023-04-01T23:55:34;3.42;;;2.30;;
